createdAt,value
2018-05-14T00:01:31.861Z,27.15
2018-05-14T00:03:59.915Z,30.47
2018-05-14T00:06:28.621Z,27.65
2018-05-14T00:08:56.693Z,25.47
2018-05-14T00:11:24.754Z,23.40
2018-05-14T00:13:52.808Z,26.77
2018-05-14T00:16:20.885Z,26.07
2018-05-14T00:18:48.945Z,26.12
2018-05-14T00:21:17.016Z,28.38
2018-05-14T00:23:45.085Z,33.07
2018-05-14T00:26:13.156Z,31.50
2018-05-14T00:28:41.228Z,25.20
2018-05-14T00:31:09.288Z,24.23
2018-05-14T00:33:37.344Z,22.77
2018-05-14T00:36:05.420Z,23.47
2018-05-14T00:38:33.476Z,26.23
2018-05-14T00:41:02.292Z,25.70
2018-05-14T00:43:30.348Z,27.58
2018-05-14T00:45:58.420Z,29.77
2018-05-14T00:48:26.480Z,27.37
2018-05-14T00:50:54.557Z,29.80
2018-05-14T00:53:22.608Z,26.37
2018-05-14T00:55:50.685Z,28.87
2018-05-14T00:58:18.747Z,27.40
2018-05-14T01:00:46.814Z,26.80
2018-05-14T01:03:14.885Z,26.53
2018-05-14T01:05:42.957Z,31.33
2018-05-14T01:08:11.012Z,34.47
2018-05-14T01:10:39.076Z,25.55
2018-05-14T01:13:07.133Z,31.07
2018-05-14T01:15:35.188Z,30.00
2018-05-14T01:18:03.251Z,25.47
2018-05-14T01:20:31.312Z,29.13
2018-05-14T01:22:59.384Z,26.63
2018-05-14T01:25:28.432Z,33.00
2018-05-14T01:27:56.655Z,29.00
2018-05-14T01:30:24.712Z,29.43
2018-05-14T01:32:52.776Z,25.30
2018-05-14T01:35:20.841Z,31.53
2018-05-14T01:37:48.910Z,32.72
2018-05-14T01:40:16.964Z,31.47
2018-05-14T01:42:45.038Z,36.67
2018-05-14T01:45:13.096Z,40.63
2018-05-14T01:47:41.168Z,40.58
2018-05-14T01:50:09.229Z,39.38
2018-05-14T01:52:37.289Z,37.88
2018-05-14T01:55:05.340Z,37.80
2018-05-14T01:57:33.411Z,44.35
2018-05-14T02:00:01.481Z,41.30
2018-05-14T02:02:29.555Z,38.83
2018-05-14T02:04:57.607Z,38.47
2018-05-14T02:07:25.680Z,35.23
2018-05-14T02:09:53.761Z,38.67
2018-05-14T02:12:21.841Z,42.83
2018-05-14T02:14:49.904Z,40.03
2018-05-14T02:17:17.978Z,39.67
2018-05-14T02:19:46.035Z,42.00
2018-05-14T02:22:14.906Z,50.57
2018-05-14T02:24:42.960Z,40.47
2018-05-14T02:27:11.205Z,44.50
2018-05-14T02:29:39.264Z,41.47
2018-05-14T02:32:07.349Z,45.27
2018-05-14T02:34:35.400Z,43.47
2018-05-14T02:37:03.968Z,45.53
2018-05-14T02:39:32.029Z,43.83
2018-05-14T02:42:00.101Z,43.43
2018-05-14T02:44:28.504Z,43.20
2018-05-14T02:46:56.576Z,44.50
2018-05-14T02:49:24.637Z,42.17
2018-05-14T02:51:52.707Z,40.53
2018-05-14T02:54:20.756Z,44.97
2018-05-14T02:56:48.853Z,43.22
2018-05-14T02:59:16.928Z,45.00
2018-05-14T03:01:44.998Z,43.08
2018-05-14T03:04:13.070Z,44.40
2018-05-14T03:06:41.138Z,38.80
2018-05-14T03:09:09.196Z,38.20
2018-05-14T03:11:37.256Z,42.60
2018-05-14T03:14:05.312Z,43.27
2018-05-14T03:16:35.270Z,46.83
2018-05-14T03:19:04.468Z,35.47
2018-05-14T03:21:32.540Z,40.65
2018-05-14T03:24:00.593Z,33.93
2018-05-14T03:26:28.667Z,36.15
2018-05-14T03:28:56.734Z,38.00
2018-05-14T03:31:24.793Z,34.20
2018-05-14T03:33:52.854Z,38.27
2018-05-14T03:36:20.908Z,38.60
2018-05-14T03:38:48.997Z,38.33
2018-05-14T03:41:17.049Z,40.73
2018-05-14T03:43:45.125Z,44.65
2018-05-14T03:46:13.180Z,36.37
2018-05-14T03:48:41.244Z,37.25
2018-05-14T03:51:09.299Z,41.67
2018-05-14T03:53:37.369Z,37.25
2018-05-14T03:56:05.420Z,40.73
2018-05-14T03:58:51.208Z,37.57
2018-05-14T04:04:30.580Z,33.83
2018-05-14T04:06:58.637Z,34.80
2018-05-14T04:09:26.696Z,44.00
2018-05-14T04:11:54.768Z,34.83
2018-05-14T04:14:22.824Z,39.37
2018-05-14T04:16:50.888Z,35.85
2018-05-14T04:19:18.960Z,39.83
2018-05-14T04:21:47.021Z,44.63
2018-05-14T04:24:15.084Z,37.23
2018-05-14T04:26:43.144Z,39.15
2018-05-14T04:29:11.240Z,38.33
2018-05-14T04:31:39.292Z,30.83
2018-05-14T04:34:07.364Z,32.07
2018-05-14T04:36:35.649Z,37.96
2018-05-14T04:39:03.728Z,35.40
2018-05-14T04:41:31.784Z,37.03
2018-05-14T04:43:59.852Z,35.60
2018-05-14T04:46:28.440Z,36.87
2018-05-14T04:48:56.509Z,33.17
2018-05-14T04:51:24.569Z,30.67
2018-05-14T04:53:52.685Z,33.10
2018-05-14T04:56:20.745Z,34.03
2018-05-14T04:58:48.811Z,35.65
2018-05-14T05:01:16.872Z,35.00
2018-05-14T05:03:44.937Z,36.00
2018-05-14T05:06:13.000Z,42.57
2018-05-14T05:08:41.071Z,39.16
2018-05-14T05:11:09.147Z,33.23
2018-05-14T05:13:37.205Z,41.55
2018-05-14T05:16:06.145Z,37.92
2018-05-14T05:18:34.216Z,41.90
2018-05-14T05:21:02.321Z,38.70
2018-05-14T05:23:30.380Z,40.80
2018-05-14T05:25:58.585Z,38.70
2018-05-14T05:28:26.677Z,36.87
2018-05-14T05:30:54.717Z,40.87
2018-05-14T05:33:22.801Z,42.53
2018-05-14T05:35:50.865Z,35.28
2018-05-14T05:38:18.957Z,42.73
2018-05-14T05:40:47.038Z,38.70
2018-05-14T05:43:15.131Z,43.43
2018-05-14T05:45:43.189Z,39.53
2018-05-14T05:48:11.253Z,38.57
2018-05-14T05:50:39.317Z,35.55
2018-05-14T05:53:07.380Z,38.93
2018-05-14T05:55:36.572Z,35.85
2018-05-14T05:58:04.632Z,33.60
2018-05-14T06:00:32.688Z,32.25
2018-05-14T06:03:00.756Z,29.17
2018-05-14T06:05:28.808Z,32.65
2018-05-14T06:07:56.884Z,29.67
2018-05-14T06:10:24.952Z,27.40
2018-05-14T06:12:53.007Z,31.33
2018-05-14T06:15:21.076Z,33.10
2018-05-14T06:17:49.132Z,30.27
2018-05-14T06:20:17.201Z,30.92
2018-05-14T06:22:45.259Z,27.90
2018-05-14T06:25:13.320Z,31.17
2018-05-14T06:27:41.376Z,33.47
2018-05-14T06:30:09.440Z,29.13
2018-05-14T06:32:37.503Z,36.00
2018-05-14T06:35:05.575Z,31.43
2018-05-14T06:37:33.627Z,24.87
2018-05-14T06:40:01.714Z,25.67
2018-05-14T06:42:29.776Z,27.63
2018-05-14T06:44:57.840Z,30.87
2018-05-14T06:47:25.908Z,28.37
2018-05-14T06:49:54.019Z,22.70
2018-05-14T06:52:22.044Z,27.98
2018-05-14T06:54:50.131Z,26.17
2018-05-14T06:57:18.188Z,25.25
2018-05-14T06:59:46.264Z,27.13
2018-05-14T07:02:14.321Z,29.70
2018-05-14T07:04:42.400Z,26.83
2018-05-14T07:07:10.465Z,24.47
2018-05-14T07:09:38.540Z,25.70
2018-05-14T07:12:07.721Z,21.43
2018-05-14T07:14:35.792Z,24.33
2018-05-14T07:17:03.861Z,25.00
2018-05-14T07:19:31.920Z,24.70
2018-05-14T07:21:59.971Z,25.83
2018-05-14T07:24:28.460Z,27.87
2018-05-14T07:26:56.534Z,25.63
2018-05-14T07:29:24.588Z,23.20
2018-05-14T07:31:52.656Z,26.15
2018-05-14T07:34:20.724Z,23.75
2018-05-14T07:36:48.796Z,24.87
2018-05-14T07:39:16.856Z,26.73
2018-05-14T07:41:44.916Z,33.60
2018-05-14T07:44:12.999Z,23.73
2018-05-14T07:46:41.048Z,32.23
2018-05-14T07:49:09.120Z,28.23
2018-05-14T07:51:38.309Z,29.33
2018-05-14T07:54:06.387Z,28.70
2018-05-14T07:56:34.432Z,31.08
2018-05-14T07:59:02.504Z,27.87
2018-05-14T08:01:30.575Z,28.35
2018-05-14T08:03:58.631Z,33.42
2018-05-14T08:06:26.688Z,28.70
2018-05-14T08:08:54.761Z,29.70
2018-05-14T08:11:22.833Z,32.10
2018-05-14T08:13:50.904Z,33.13
2018-05-14T08:16:18.971Z,28.17
2018-05-14T08:18:47.044Z,29.17
2018-05-14T08:21:15.117Z,27.27
2018-05-14T08:23:43.188Z,28.27
2018-05-14T08:26:11.260Z,32.23
2018-05-14T08:28:39.334Z,26.98
2018-05-14T08:31:07.470Z,31.30
2018-05-14T08:33:35.452Z,33.65
2018-05-14T08:36:03.520Z,27.40
2018-05-14T08:38:31.582Z,25.83
2018-05-14T08:40:59.659Z,28.07
2018-05-14T08:43:28.672Z,30.65
2018-05-14T08:45:56.769Z,32.13
2018-05-14T08:48:24.813Z,25.17
2018-05-14T08:50:52.880Z,26.33
2018-05-14T08:53:20.952Z,26.07
2018-05-14T08:55:49.030Z,26.27
2018-05-14T08:58:17.116Z,29.30
2018-05-14T09:00:45.256Z,30.05
2018-05-14T09:03:13.263Z,52.07
2018-05-14T09:05:41.351Z,34.38
2018-05-14T09:08:09.628Z,37.67
2018-05-14T09:10:37.701Z,30.98
2018-05-14T09:13:05.756Z,27.47
2018-05-14T09:15:33.824Z,32.53
2018-05-14T09:18:01.881Z,31.57
2018-05-14T09:20:29.952Z,29.13
2018-05-14T09:22:58.012Z,27.97
2018-05-14T09:25:26.103Z,28.07
2018-05-14T09:27:54.368Z,28.37
2018-05-14T09:30:22.431Z,26.60
2018-05-14T09:32:50.488Z,29.10
2018-05-14T09:35:18.556Z,28.47
2018-05-14T09:37:46.616Z,27.60
2018-05-14T09:40:14.684Z,35.50
2018-05-14T09:42:42.732Z,34.00
2018-05-14T09:45:10.800Z,32.73
2018-05-14T09:47:38.860Z,34.57
2018-05-14T09:50:06.936Z,27.67
2018-05-14T09:52:34.992Z,24.33
2018-05-14T09:55:03.064Z,26.13
2018-05-14T09:57:31.120Z,25.80
2018-05-14T09:59:59.200Z,26.00
2018-05-14T10:02:27.272Z,28.90
2018-05-14T10:04:55.343Z,20.90
2018-05-14T10:07:23.416Z,28.38
2018-05-14T10:09:51.476Z,27.75
2018-05-14T10:12:19.540Z,26.50
2018-05-14T10:14:47.616Z,24.67
2018-05-14T10:17:15.669Z,26.10
2018-05-14T10:19:43.732Z,22.93
2018-05-14T10:22:11.797Z,25.33
2018-05-14T10:24:41.020Z,25.95
2018-05-14T10:27:09.057Z,22.73
2018-05-14T10:29:37.124Z,23.80
2018-05-14T10:32:05.235Z,24.50
2018-05-14T10:34:33.265Z,23.80
2018-05-14T10:37:01.320Z,26.67
2018-05-14T10:39:29.396Z,25.43
2018-05-14T10:41:57.456Z,24.12
2018-05-14T10:44:25.528Z,24.30
2018-05-14T10:46:53.605Z,25.40
2018-05-14T10:49:21.669Z,23.60
2018-05-14T10:51:49.756Z,29.02
2018-05-14T10:54:17.811Z,28.50
2018-05-14T10:56:45.885Z,23.10
2018-05-14T10:59:13.945Z,26.83
2018-05-14T11:01:42.016Z,22.70
2018-05-14T11:04:10.073Z,21.70
2018-05-14T11:06:38.145Z,25.57
2018-05-14T11:09:06.224Z,31.07
2018-05-14T11:11:34.287Z,21.37
2018-05-14T11:14:02.360Z,24.37
2018-05-14T11:16:30.437Z,39.97
2018-05-14T11:18:58.502Z,23.98
2018-05-14T11:21:26.611Z,24.33
2018-05-14T11:23:54.674Z,24.02
2018-05-14T11:26:22.756Z,27.65
2018-05-14T11:28:50.829Z,32.00
2018-05-14T11:31:18.904Z,28.65
2018-05-14T11:33:46.972Z,28.80
2018-05-14T11:36:15.057Z,26.33
2018-05-14T11:38:43.117Z,26.62
2018-05-14T11:41:11.888Z,26.98
2018-05-14T11:43:39.952Z,28.10
2018-05-14T11:46:08.040Z,29.43
2018-05-14T11:48:36.092Z,32.58
2018-05-14T11:51:04.168Z,49.07
2018-05-14T11:53:32.228Z,27.40
2018-05-14T11:56:00.293Z,31.13
2018-05-14T11:58:28.545Z,34.35
2018-05-14T12:00:56.612Z,36.47
2018-05-14T12:03:24.675Z,31.77
2018-05-14T12:05:52.740Z,26.93
2018-05-14T12:08:20.817Z,29.20
2018-05-14T12:10:48.875Z,32.13
2018-05-14T12:13:16.929Z,29.33
2018-05-14T12:15:44.996Z,32.07
2018-05-14T12:18:13.175Z,30.57
2018-05-14T12:20:41.134Z,28.13
2018-05-14T12:23:09.201Z,37.03
2018-05-14T12:25:37.274Z,38.20
2018-05-14T12:28:05.320Z,31.33
2018-05-14T12:30:33.397Z,29.52
2018-05-14T12:33:01.451Z,29.25
2018-05-14T12:35:29.516Z,35.03
2018-05-14T12:37:57.572Z,32.00
2018-05-14T12:40:25.640Z,38.03
2018-05-14T12:42:53.688Z,31.43
2018-05-14T12:45:21.752Z,32.87
2018-05-14T12:47:49.824Z,39.47
2018-05-14T12:50:17.876Z,41.10
2018-05-14T12:52:45.944Z,36.93
2018-05-14T12:55:13.996Z,33.53
2018-05-14T12:57:42.063Z,30.87
2018-05-14T13:00:10.116Z,39.67
2018-05-14T13:02:38.176Z,61.57
2018-05-14T13:05:06.236Z,39.50
2018-05-14T13:07:34.304Z,37.40
2018-05-14T13:10:02.380Z,38.83
2018-05-14T13:12:30.443Z,42.63
2018-05-14T13:14:58.508Z,42.73
2018-05-14T13:17:26.581Z,41.57
2018-05-14T13:19:54.656Z,36.00
2018-05-14T13:22:22.724Z,36.20
2018-05-14T13:24:50.782Z,37.03
2018-05-14T13:27:18.860Z,42.57
2018-05-14T13:29:46.922Z,36.40
2018-05-14T13:32:14.999Z,38.67
2018-05-14T13:34:43.070Z,37.57
2018-05-14T13:37:11.145Z,40.93
2018-05-14T13:39:39.216Z,36.90
2018-05-14T13:42:07.286Z,41.57
2018-05-14T13:44:35.441Z,39.47
2018-05-14T13:47:03.417Z,31.57
2018-05-14T13:49:31.478Z,31.77
2018-05-14T13:51:59.598Z,35.17
2018-05-14T13:54:28.666Z,38.54
2018-05-14T13:56:56.742Z,32.47
2018-05-14T13:59:24.796Z,38.13
2018-05-14T14:01:52.880Z,32.53
2018-05-14T14:04:20.945Z,33.40
2018-05-14T14:06:49.004Z,30.17
2018-05-14T14:09:17.061Z,38.93
2018-05-14T14:11:45.123Z,39.73
2018-05-14T14:14:13.184Z,34.77
2018-05-14T14:16:41.252Z,29.97
2018-05-14T14:19:09.313Z,28.30
2018-05-14T14:21:37.389Z,20.33
2018-05-14T14:24:05.495Z,23.60
2018-05-14T14:26:33.523Z,14.95
2018-05-14T14:29:01.593Z,12.55
2018-05-14T14:31:29.656Z,22.52
2018-05-14T14:33:57.710Z,14.37
2018-05-14T14:36:25.891Z,19.13
2018-05-14T14:38:53.832Z,15.67
2018-05-14T14:41:21.916Z,15.17
2018-05-14T14:43:49.973Z,17.83
2018-05-14T14:46:18.075Z,15.03
2018-05-14T14:48:46.116Z,13.90
2018-05-14T14:51:14.248Z,12.80
2018-05-14T14:53:42.224Z,10.33
2018-05-14T14:56:10.284Z,6.63
2018-05-14T14:58:38.330Z,5.90
2018-05-14T15:01:06.383Z,4.40
2018-05-14T15:03:34.440Z,6.90
2018-05-14T15:06:02.492Z,6.93
2018-05-14T15:08:30.557Z,12.07
2018-05-14T15:10:58.620Z,10.67
2018-05-14T15:13:26.681Z,13.00
2018-05-14T15:15:54.734Z,9.87
2018-05-14T15:18:22.801Z,10.90
2018-05-14T15:20:50.844Z,6.77
2018-05-14T15:23:18.912Z,10.70
2018-05-14T15:25:46.960Z,7.13
2018-05-14T15:28:15.013Z,8.57
2018-05-14T15:30:43.072Z,18.40
2018-05-14T15:33:11.134Z,7.10
2018-05-14T15:35:39.192Z,8.37
2018-05-14T15:38:07.252Z,6.93
2018-05-14T15:40:35.292Z,5.93
2018-05-14T15:43:03.352Z,6.00
2018-05-14T15:45:32.438Z,13.17
2018-05-14T15:48:00.496Z,5.40
2018-05-14T15:50:28.640Z,5.12
2018-05-14T15:52:56.699Z,5.20
2018-05-14T15:55:24.749Z,4.40
2018-05-14T15:57:52.809Z,7.20
2018-05-14T16:00:20.860Z,15.37
2018-05-14T16:02:48.919Z,5.23
2018-05-14T16:05:16.961Z,7.23
2018-05-14T16:07:45.025Z,3.13
2018-05-14T16:10:13.090Z,4.30
2018-05-14T16:12:41.142Z,7.80
2018-05-14T16:15:09.196Z,3.67
2018-05-14T16:17:37.256Z,3.70
2018-05-14T16:20:05.318Z,3.80
2018-05-14T16:22:33.392Z,10.07
2018-05-14T16:25:01.467Z,3.97
2018-05-14T16:27:29.529Z,2.77
2018-05-14T16:29:57.573Z,3.53
2018-05-14T16:32:25.642Z,7.90
2018-05-14T16:34:53.700Z,4.50
2018-05-14T16:37:21.757Z,4.50
2018-05-14T16:39:49.811Z,3.23
2018-05-14T16:42:17.868Z,4.60
2018-05-14T16:44:45.916Z,3.30
2018-05-14T16:47:13.988Z,3.20
2018-05-14T16:49:42.052Z,4.10
2018-05-14T16:52:10.112Z,5.90
2018-05-14T16:54:38.172Z,6.90
2018-05-14T16:57:06.238Z,17.93
2018-05-14T16:59:34.289Z,4.57
2018-05-14T17:02:02.348Z,7.15
2018-05-14T17:04:30.407Z,8.43
2018-05-14T17:06:58.478Z,6.65
2018-05-14T17:09:26.528Z,3.03
2018-05-14T17:11:54.589Z,5.80
2018-05-14T17:14:22.664Z,10.13
2018-05-14T17:16:50.720Z,3.40
2018-05-14T17:19:18.773Z,4.77
2018-05-14T17:21:46.824Z,4.20
2018-05-14T17:24:14.893Z,3.73
2018-05-14T17:26:42.951Z,11.73
2018-05-14T17:29:11.008Z,4.33
2018-05-14T17:31:39.057Z,4.80
2018-05-14T17:34:07.114Z,4.17
2018-05-14T17:36:35.172Z,5.57
2018-05-14T17:39:03.232Z,9.33
2018-05-14T17:41:31.292Z,5.53
2018-05-14T17:43:59.643Z,3.28
2018-05-14T17:46:28.456Z,3.50
2018-05-14T17:48:56.518Z,4.13
2018-05-14T17:51:24.560Z,4.23
2018-05-14T17:53:52.616Z,3.13
2018-05-14T17:56:20.668Z,4.20
2018-05-14T17:58:48.733Z,6.80
2018-05-14T18:01:16.785Z,4.10
2018-05-14T18:03:44.930Z,10.70
2018-05-14T18:06:12.980Z,8.03
2018-05-14T18:08:41.940Z,5.37
2018-05-14T18:11:10.099Z,4.63
2018-05-14T18:13:38.058Z,8.00
2018-05-14T18:16:06.102Z,3.47
2018-05-14T18:18:34.163Z,15.65
2018-05-14T18:21:07.741Z,3.37
2018-05-14T18:23:41.240Z,7.37
2018-05-14T18:26:14.749Z,4.30
2018-05-14T18:28:42.804Z,4.20
2018-05-14T18:31:16.464Z,7.83
2018-05-14T18:33:44.445Z,5.30
2018-05-14T18:36:13.255Z,6.13
2018-05-14T18:38:41.321Z,9.40
2018-05-14T18:41:09.364Z,4.27
2018-05-14T18:43:37.438Z,5.83
2018-05-14T18:46:05.488Z,9.50
2018-05-14T18:48:33.863Z,18.27
2018-05-14T18:51:02.321Z,4.00
2018-05-14T18:53:30.384Z,3.50
2018-05-14T18:55:58.432Z,4.43
2018-05-14T18:58:26.579Z,5.13
2018-05-14T19:00:54.629Z,4.50
2018-05-14T19:03:22.688Z,9.90
2018-05-14T19:05:50.738Z,4.07
2018-05-14T19:08:18.792Z,4.93
2018-05-14T19:10:52.254Z,5.10
2018-05-14T19:13:20.318Z,4.00
2018-05-14T19:15:53.768Z,5.10
2018-05-14T19:18:21.832Z,7.67
2018-05-14T19:20:49.881Z,4.50
2018-05-14T19:23:23.525Z,10.53
2018-05-14T19:25:51.630Z,7.13
2018-05-14T19:28:25.216Z,7.43
2018-05-14T19:30:53.272Z,11.77
2018-05-14T19:33:26.832Z,6.43
2018-05-14T19:35:57.714Z,7.33
2018-05-14T19:38:26.649Z,6.80
2018-05-14T19:40:54.710Z,6.90
2018-05-14T19:43:22.756Z,4.17
2018-05-14T19:45:50.825Z,5.57
2018-05-14T19:48:18.877Z,5.43
2018-05-14T19:50:46.936Z,5.00
2018-05-14T19:53:14.982Z,4.93
2018-05-14T19:55:43.124Z,3.93
2018-05-14T19:58:11.180Z,4.37
2018-05-14T20:00:39.240Z,4.40
2018-05-14T20:03:08.064Z,5.83
2018-05-14T20:05:36.120Z,6.67
2018-05-14T20:08:04.192Z,4.33
2018-05-14T20:10:32.251Z,4.53
2018-05-14T20:13:00.402Z,4.73
2018-05-14T20:15:28.464Z,10.63
2018-05-14T20:17:57.279Z,7.93
2018-05-14T20:20:25.342Z,5.30
2018-05-14T20:22:53.385Z,5.10
2018-05-14T20:25:21.446Z,4.37
2018-05-14T20:27:49.520Z,5.33
2018-05-14T20:30:17.606Z,4.57
2018-05-14T20:32:45.716Z,5.70
2018-05-14T20:35:13.776Z,4.00
2018-05-14T20:37:41.832Z,5.60
2018-05-14T20:40:09.897Z,5.30
2018-05-14T20:42:37.959Z,9.10
2018-05-14T20:45:06.079Z,9.30
2018-05-14T20:47:34.065Z,11.93
2018-05-14T20:50:02.129Z,10.73
2018-05-14T20:52:30.224Z,10.30
2018-05-14T20:54:58.280Z,12.40
2018-05-14T20:57:26.328Z,6.30
2018-05-14T20:59:54.400Z,9.20
2018-05-14T21:02:22.456Z,10.00
2018-05-14T21:04:50.519Z,14.23
2018-05-14T21:07:18.568Z,15.70
2018-05-14T21:09:46.644Z,8.80
2018-05-14T21:12:14.698Z,13.70
2018-05-14T21:14:42.758Z,10.20
2018-05-14T21:17:10.812Z,8.13
2018-05-14T21:19:38.876Z,15.03
2018-05-14T21:22:06.931Z,27.67
2018-05-14T21:24:35.001Z,13.43
2018-05-14T21:27:03.054Z,9.07
2018-05-14T21:29:31.105Z,7.03
2018-05-14T21:31:59.153Z,8.50
2018-05-14T21:34:28.331Z,11.97
2018-05-14T21:36:56.385Z,6.53
2018-05-14T21:39:24.452Z,8.57
2018-05-14T21:41:52.514Z,5.57
2018-05-14T21:44:20.586Z,8.70
2018-05-14T21:46:48.624Z,9.80
2018-05-14T21:49:16.712Z,7.20
2018-05-14T21:51:44.771Z,5.37
2018-05-14T21:54:12.825Z,7.43
2018-05-14T21:56:40.892Z,5.77
2018-05-14T21:59:08.967Z,5.47
2018-05-14T22:01:37.030Z,7.10
2018-05-14T22:04:05.092Z,5.90
2018-05-14T22:06:33.163Z,6.45
2018-05-14T22:09:01.214Z,8.27
2018-05-14T22:11:29.282Z,7.77
2018-05-14T22:13:57.319Z,6.40
2018-05-14T22:16:25.388Z,6.20
2018-05-14T22:18:53.440Z,9.25
2018-05-14T22:21:21.515Z,6.75
2018-05-14T22:23:49.568Z,6.60
2018-05-14T22:26:17.628Z,7.87
2018-05-14T22:28:45.696Z,5.57
2018-05-14T22:31:13.767Z,5.30
2018-05-14T22:33:41.818Z,7.97
2018-05-14T22:36:09.892Z,6.20
2018-05-14T22:38:37.928Z,9.17
2018-05-14T22:41:06.005Z,7.77
2018-05-14T22:43:34.060Z,9.47
2018-05-14T22:46:02.128Z,14.87
2018-05-14T22:48:30.172Z,9.90
2018-05-14T22:50:58.240Z,10.07
2018-05-14T22:53:26.291Z,6.20
2018-05-14T22:55:54.362Z,5.90
2018-05-14T22:58:22.426Z,8.73
2018-05-14T23:00:50.473Z,9.02
2018-05-14T23:03:18.520Z,8.88
2018-05-14T23:05:46.573Z,7.30
2018-05-14T23:08:14.632Z,6.53
2018-05-14T23:10:42.692Z,5.53
2018-05-14T23:13:10.740Z,5.33
2018-05-14T23:15:38.813Z,17.40
2018-05-14T23:18:06.864Z,12.60
2018-05-14T23:20:34.933Z,6.80
2018-05-14T23:23:02.980Z,9.80
2018-05-14T23:25:31.057Z,7.50
2018-05-14T23:27:59.114Z,6.87
2018-05-14T23:30:28.293Z,7.93
2018-05-14T23:32:56.362Z,6.55
2018-05-14T23:35:24.437Z,7.85
2018-05-14T23:37:52.481Z,6.12
2018-05-14T23:40:20.553Z,7.55
2018-05-14T23:42:48.612Z,6.30
2018-05-14T23:45:16.672Z,7.20
2018-05-14T23:47:44.720Z,6.17
2018-05-14T23:50:12.780Z,6.30
2018-05-14T23:52:40.844Z,6.20
2018-05-14T23:55:08.905Z,6.83
2018-05-14T23:57:36.956Z,8.17
